createdAt,value
2023-05-07T00:00:09.546Z,5.50
2023-05-07T00:03:13.350Z,5.28
2023-05-07T00:06:16.253Z,4.18
2023-05-07T00:09:18.646Z,4.70
2023-05-07T00:12:20.841Z,5.50
2023-05-07T00:15:23.335Z,4.82
2023-05-07T00:18:26.277Z,4.95
2023-05-07T00:21:28.644Z,6.13
2023-05-07T00:24:32.071Z,4.70
2023-05-07T00:27:34.882Z,5.35
2023-05-07T00:30:37.254Z,5.10
2023-05-07T00:33:40.112Z,5.22
2023-05-07T00:36:42.271Z,5.25
2023-05-07T00:39:44.608Z,5.45
2023-05-07T00:42:48.200Z,5.20
2023-05-07T00:45:50.991Z,4.82
2023-05-07T00:48:54.765Z,4.75
2023-05-07T00:51:57.435Z,6.47
2023-05-07T00:55:04.066Z,6.50
2023-05-07T00:58:06.859Z,4.75
2023-05-07T01:01:09.244Z,5.85
2023-05-07T01:04:11.554Z,4.82
2023-05-07T01:07:14.426Z,5.95
2023-05-07T01:10:17.126Z,4.78
2023-05-07T01:13:20.708Z,5.85
2023-05-07T01:16:23.168Z,5.13
2023-05-07T01:19:25.411Z,4.43
2023-05-07T01:22:35.494Z,6.50
2023-05-07T01:25:37.646Z,5.35
2023-05-07T01:28:40.402Z,4.68
2023-05-07T01:31:45.444Z,6.15
2023-05-07T01:34:49.352Z,4.78
2023-05-07T01:37:52.068Z,5.15
2023-05-07T01:40:54.517Z,5.10
2023-05-07T01:43:59.260Z,4.38
2023-05-07T01:47:03.327Z,4.47
2023-05-07T01:50:09.531Z,4.88
2023-05-07T01:53:12.362Z,3.70
2023-05-07T01:56:16.135Z,5.82
2023-05-07T01:59:18.471Z,5.53
2023-05-07T02:02:20.676Z,6.65
2023-05-07T02:05:22.852Z,5.30
2023-05-07T02:08:24.945Z,5.15
2023-05-07T02:11:27.140Z,7.07
2023-05-07T02:14:29.275Z,6.35
2023-05-07T02:17:33.051Z,5.95
2023-05-07T02:20:35.182Z,6.55
2023-05-07T02:23:39.302Z,5.63
2023-05-07T02:26:42.491Z,5.55
2023-05-07T02:29:44.663Z,5.35
2023-05-07T02:32:46.772Z,6.03
2023-05-07T02:35:48.850Z,5.72
2023-05-07T02:38:51.042Z,4.32
2023-05-07T02:41:53.601Z,6.85
2023-05-07T02:44:55.631Z,5.20
2023-05-07T02:47:57.913Z,5.72
2023-05-07T02:51:00.751Z,4.82
2023-05-07T02:54:03.164Z,5.90
2023-05-07T02:57:05.294Z,5.88
2023-05-07T03:00:19.109Z,5.38
2023-05-07T03:03:21.917Z,6.95
2023-05-07T03:06:24.127Z,5.10
2023-05-07T03:09:26.297Z,5.95
2023-05-07T03:12:28.413Z,4.55
2023-05-07T03:15:30.880Z,5.57
2023-05-07T03:18:33.104Z,7.30
2023-05-07T03:21:35.516Z,7.55
2023-05-07T03:24:37.577Z,5.25
2023-05-07T03:27:39.891Z,6.50
2023-05-07T03:30:42.103Z,5.70
2023-05-07T03:33:55.513Z,6.25
2023-05-07T03:36:57.550Z,5.28
2023-05-07T03:39:59.648Z,6.40
2023-05-07T03:43:02.119Z,5.55
2023-05-07T03:46:04.364Z,4.43
2023-05-07T03:49:06.842Z,5.75
2023-05-07T03:52:08.989Z,5.88
2023-05-07T03:55:11.138Z,6.18
2023-05-07T03:58:13.189Z,5.78
2023-05-07T04:01:15.358Z,6.05
2023-05-07T04:04:17.931Z,6.28
2023-05-07T04:07:20.156Z,6.20
2023-05-07T04:10:22.313Z,5.82
2023-05-07T04:13:26.313Z,5.97
2023-05-07T04:16:28.558Z,6.00
2023-05-07T04:19:30.731Z,5.93
2023-05-07T04:22:32.801Z,4.35
2023-05-07T04:25:35.299Z,4.65
2023-05-07T04:28:37.633Z,4.72
2023-05-07T04:31:39.916Z,5.13
2023-05-07T04:34:42.031Z,7.25
2023-05-07T04:37:47.024Z,4.97
2023-05-07T04:40:49.204Z,4.65
2023-05-07T04:43:51.285Z,5.72
2023-05-07T04:46:53.589Z,4.32
2023-05-07T04:49:55.813Z,5.97
2023-05-07T04:52:58.860Z,5.05
2023-05-07T04:56:01.042Z,4.38
2023-05-07T04:59:03.173Z,4.55
2023-05-07T05:02:08.213Z,5.63
2023-05-07T05:05:11.217Z,5.13
2023-05-07T05:08:13.349Z,5.72
2023-05-07T05:11:16.559Z,5.70
2023-05-07T05:14:18.684Z,6.22
2023-05-07T05:17:20.822Z,5.95
2023-05-07T05:20:23.565Z,4.50
2023-05-07T05:23:25.907Z,4.95
2023-05-07T05:26:28.051Z,6.47
2023-05-07T05:29:31.161Z,5.03
2023-05-07T05:32:34.774Z,5.30
2023-05-07T05:35:37.004Z,5.57
2023-05-07T05:38:39.843Z,5.60
2023-05-07T05:41:41.892Z,5.07
2023-05-07T05:44:44.215Z,7.03
2023-05-07T05:47:46.579Z,5.90
2023-05-07T05:50:48.675Z,6.05
2023-05-07T05:53:50.780Z,7.03
2023-05-07T05:56:52.823Z,7.40
2023-05-07T05:59:55.274Z,6.25
2023-05-07T06:02:57.566Z,6.35
2023-05-07T06:06:01.151Z,7.10
2023-05-07T06:09:03.804Z,6.80
2023-05-07T06:12:07.296Z,6.18
2023-05-07T06:15:09.759Z,5.18
2023-05-07T06:18:12.079Z,6.38
2023-05-07T06:21:16.206Z,6.32
2023-05-07T06:24:18.607Z,5.40
2023-05-07T06:27:20.668Z,6.28
2023-05-07T06:30:22.779Z,6.20
2023-05-07T06:33:25.130Z,6.85
2023-05-07T06:36:27.834Z,5.85
2023-05-07T06:39:29.927Z,7.82
2023-05-07T06:42:31.959Z,5.45
2023-05-07T06:45:34.369Z,5.85
2023-05-07T06:48:36.469Z,5.60
2023-05-07T06:51:38.572Z,5.38
2023-05-07T06:54:41.015Z,5.18
2023-05-07T06:57:43.317Z,4.85
2023-05-07T07:00:46.944Z,5.07
2023-05-07T07:03:49.121Z,5.93
2023-05-07T07:06:53.024Z,5.35
2023-05-07T07:09:55.074Z,4.35
2023-05-07T07:12:57.182Z,4.15
2023-05-07T07:16:00.896Z,4.38
2023-05-07T07:19:03.075Z,5.40
2023-05-07T07:22:05.234Z,5.30
2023-05-07T07:25:08.301Z,5.18
2023-05-07T07:28:12.803Z,5.03
2023-05-07T07:31:15.311Z,5.22
2023-05-07T07:34:17.670Z,3.58
2023-05-07T07:37:19.801Z,4.18
2023-05-07T07:40:22.060Z,5.05
2023-05-07T07:43:24.194Z,4.53
2023-05-07T07:46:27.769Z,5.45
2023-05-07T07:49:30.111Z,5.07
2023-05-07T07:52:32.184Z,4.90
2023-05-07T07:55:38.935Z,4.43
2023-05-07T07:58:41.067Z,4.80
2023-05-07T08:01:43.354Z,5.45
2023-05-07T08:04:45.758Z,4.22
2023-05-07T08:07:53.043Z,4.22
2023-05-07T08:10:55.502Z,4.03
2023-05-07T08:13:59.678Z,4.22
2023-05-07T08:17:05.295Z,4.28
2023-05-07T08:20:08.790Z,3.60
2023-05-07T08:26:13.653Z,3.40
2023-05-07T08:29:16.010Z,4.15
2023-05-07T08:32:18.291Z,4.20
2023-05-07T08:35:20.671Z,4.05
2023-05-07T08:38:23.577Z,4.47
2023-05-07T08:41:25.756Z,4.18
2023-05-07T08:44:29.403Z,3.88
2023-05-07T08:47:41.189Z,4.38
2023-05-07T08:50:43.685Z,4.55
2023-05-07T08:53:47.165Z,4.63
2023-05-07T08:56:49.642Z,4.30
2023-05-07T08:59:51.891Z,3.92
2023-05-07T09:02:57.421Z,5.60
2023-05-07T09:05:59.756Z,3.92
2023-05-07T09:09:02.705Z,4.65
2023-05-07T09:12:05.100Z,4.25
2023-05-07T09:15:08.004Z,4.35
2023-05-07T09:18:10.134Z,4.80
2023-05-07T09:21:15.998Z,4.20
2023-05-07T09:24:18.247Z,5.45
2023-05-07T09:27:20.380Z,3.28
2023-05-07T09:30:22.883Z,4.05
2023-05-07T09:33:28.584Z,4.13
2023-05-07T09:36:30.722Z,4.22
2023-05-07T09:39:47.297Z,3.60
2023-05-07T09:42:50.886Z,3.35
2023-05-07T09:45:53.534Z,4.00
2023-05-07T09:48:59.062Z,3.35
2023-05-07T09:52:02.959Z,3.63
2023-05-07T09:55:07.170Z,4.00
2023-05-07T09:58:15.197Z,3.75
2023-05-07T10:01:20.406Z,4.22
2023-05-07T10:04:22.901Z,4.15
2023-05-07T10:07:26.495Z,4.68
2023-05-07T10:13:39.081Z,4.25
2023-05-07T10:16:42.188Z,4.45
2023-05-07T10:19:46.313Z,4.32
2023-05-07T10:26:00.429Z,5.28
2023-05-07T10:29:13.538Z,3.67
2023-05-07T10:32:34.285Z,3.70
2023-05-07T10:35:45.163Z,5.00
2023-05-07T10:38:47.857Z,4.07
2023-05-07T10:41:51.587Z,3.97
2023-05-07T10:44:53.957Z,4.53
2023-05-07T10:48:28.910Z,3.35
2023-05-07T10:51:33.670Z,4.25
2023-05-07T10:54:37.581Z,3.00
2023-05-07T10:57:40.134Z,3.88
2023-05-07T11:00:43.911Z,3.92
2023-05-07T11:04:15.129Z,4.35
2023-05-07T11:07:26.654Z,3.63
2023-05-07T11:10:53.774Z,3.22
2023-05-07T11:13:56.093Z,3.22
2023-05-07T11:17:05.025Z,4.15
2023-05-07T11:20:07.712Z,4.53
2023-05-07T11:23:29.915Z,4.30
2023-05-07T11:26:43.223Z,3.05
2023-05-07T11:29:48.705Z,3.55
2023-05-07T11:32:51.046Z,3.33
2023-05-07T11:35:57.255Z,3.72
2023-05-07T11:38:59.734Z,5.57
2023-05-07T11:42:02.176Z,3.13
2023-05-07T11:45:05.498Z,4.13
2023-05-07T11:48:07.968Z,4.38
2023-05-07T11:51:12.378Z,4.30
2023-05-07T11:54:17.360Z,3.13
2023-05-07T11:57:21.081Z,3.95
2023-05-07T12:00:23.398Z,2.63
2023-05-07T12:03:25.801Z,3.65
2023-05-07T12:06:28.193Z,4.25
2023-05-07T12:09:30.921Z,3.65
2023-05-07T12:15:44.361Z,4.20
2023-05-07T12:18:47.943Z,3.57
2023-05-07T12:24:59.627Z,3.08
2023-05-07T12:28:06.309Z,4.40
2023-05-07T12:31:17.069Z,4.80
2023-05-07T12:34:19.344Z,4.40
2023-05-07T12:37:30.448Z,3.53
2023-05-07T12:40:39.743Z,4.97
2023-05-07T12:43:45.567Z,3.78
2023-05-07T12:46:49.016Z,4.80
2023-05-07T12:49:52.710Z,4.07
2023-05-07T12:52:56.175Z,3.72
2023-05-07T12:56:00.818Z,3.67
2023-05-07T12:59:02.908Z,3.65
2023-05-07T13:02:05.506Z,4.03
2023-05-07T13:05:09.822Z,3.92
2023-05-07T13:08:12.181Z,4.28
2023-05-07T13:11:14.743Z,3.47
2023-05-07T13:14:17.189Z,3.58
2023-05-07T13:17:19.994Z,3.78
2023-05-07T13:20:22.165Z,2.90
2023-05-07T13:23:24.734Z,4.85
2023-05-07T13:26:27.408Z,3.72
2023-05-07T13:29:31.296Z,2.78
2023-05-07T13:32:33.488Z,3.47
2023-05-07T13:35:36.465Z,2.88
2023-05-07T13:38:38.598Z,3.97
2023-05-07T13:41:41.066Z,3.38
2023-05-07T13:44:44.924Z,4.10
2023-05-07T13:47:48.180Z,4.22
2023-05-07T13:50:50.451Z,2.83
2023-05-07T13:53:53.623Z,4.30
2023-05-07T13:56:55.958Z,2.25
2023-05-07T13:59:58.082Z,2.20
2023-05-07T14:03:00.426Z,2.38
2023-05-07T14:06:02.698Z,3.38
2023-05-07T14:09:05.222Z,4.60
2023-05-07T14:12:07.668Z,3.08
2023-05-07T14:15:10.100Z,2.72
2023-05-07T14:18:12.212Z,3.40
2023-05-07T14:21:15.145Z,3.53
2023-05-07T14:24:27.200Z,3.33
2023-05-07T14:27:36.823Z,3.95
2023-05-07T14:30:38.956Z,2.40
2023-05-07T14:33:42.513Z,2.50
2023-05-07T14:36:45.297Z,3.35
2023-05-07T14:39:49.711Z,2.50
2023-05-07T14:42:53.576Z,2.92
2023-05-07T14:46:21.835Z,2.58
2023-05-07T14:49:24.834Z,1.50
2023-05-07T14:52:27.099Z,3.67
2023-05-07T14:55:29.181Z,2.47
2023-05-07T14:58:31.583Z,2.35
2023-05-07T15:01:35.429Z,2.22
2023-05-07T15:04:39.262Z,2.30
2023-05-07T15:07:41.479Z,3.83
2023-05-07T15:10:43.716Z,2.67
2023-05-07T15:13:45.935Z,2.67
2023-05-07T15:16:48.242Z,3.40
2023-05-07T15:19:53.027Z,2.63
2023-05-07T15:22:57.039Z,3.33
2023-05-07T15:25:59.467Z,3.22
2023-05-07T15:29:04.252Z,3.17
2023-05-07T15:32:06.942Z,2.70
2023-05-07T15:35:10.935Z,3.67
2023-05-07T15:41:16.440Z,2.38
2023-05-07T15:44:29.735Z,3.05
2023-05-07T15:47:35.737Z,1.88
2023-05-07T15:50:38.470Z,2.70
2023-05-07T15:53:41.268Z,1.85
2023-05-07T15:56:43.329Z,2.30
2023-05-07T15:59:45.634Z,3.17
2023-05-07T16:02:48.397Z,2.10
2023-05-07T16:05:50.552Z,1.73
2023-05-07T16:08:52.558Z,2.50
2023-05-07T16:11:54.667Z,1.75
2023-05-07T16:14:57.036Z,2.03
2023-05-07T16:17:59.772Z,1.48
2023-05-07T16:21:01.926Z,2.28
2023-05-07T16:24:04.480Z,1.73
2023-05-07T16:27:07.820Z,2.20
2023-05-07T16:30:10.820Z,1.38
2023-05-07T16:33:13.113Z,1.20
2023-05-07T16:36:15.232Z,2.35
2023-05-07T16:39:20.478Z,1.50
2023-05-07T16:42:22.613Z,1.40
2023-05-07T16:45:24.674Z,1.63
2023-05-07T16:48:27.040Z,1.75
2023-05-07T16:51:29.454Z,0.95
2023-05-07T16:54:31.506Z,2.00
2023-05-07T16:57:33.510Z,1.30
2023-05-07T17:00:48.995Z,1.63
2023-05-07T17:03:53.518Z,1.02
2023-05-07T17:06:57.045Z,1.15
2023-05-07T17:09:59.103Z,1.95
2023-05-07T17:13:01.377Z,1.45
2023-05-07T17:16:03.948Z,1.60
2023-05-07T17:19:06.370Z,1.65
2023-05-07T17:22:08.879Z,1.15
2023-05-07T17:25:14.955Z,1.33
2023-05-07T17:28:17.229Z,1.48
2023-05-07T17:31:19.634Z,1.05
2023-05-07T17:34:21.854Z,1.33
2023-05-07T17:37:24.217Z,1.83
2023-05-07T17:40:26.908Z,2.00
2023-05-07T17:43:29.054Z,0.90
2023-05-07T17:46:31.547Z,1.00
2023-05-07T17:49:35.777Z,1.60
2023-05-07T17:52:38.497Z,2.08
2023-05-07T17:55:45.083Z,1.23
2023-05-07T17:58:58.653Z,1.08
2023-05-07T18:02:01.040Z,1.65
2023-05-07T18:05:03.665Z,1.17
2023-05-07T18:08:07.750Z,1.10
2023-05-07T18:11:10.202Z,1.60
2023-05-07T18:14:12.367Z,1.73
2023-05-07T18:17:14.707Z,1.67
2023-05-07T18:20:17.117Z,1.90
2023-05-07T18:23:19.238Z,1.67
2023-05-07T18:26:21.525Z,1.38
2023-05-07T18:29:23.981Z,1.48
2023-05-07T18:32:26.446Z,2.78
2023-05-07T18:35:32.715Z,1.40
2023-05-07T18:38:35.091Z,1.63
2023-05-07T18:41:37.501Z,1.70
2023-05-07T18:44:39.915Z,2.75
2023-05-07T18:47:42.218Z,1.38
2023-05-07T18:50:45.250Z,1.98
2023-05-07T18:53:47.328Z,1.40
2023-05-07T18:56:49.747Z,2.17
2023-05-07T18:59:57.317Z,1.17
2023-05-07T19:02:59.439Z,1.45
2023-05-07T19:06:03.177Z,2.13
2023-05-07T19:09:05.510Z,1.90
2023-05-07T19:12:08.226Z,2.15
2023-05-07T19:15:11.197Z,1.58
2023-05-07T19:18:14.113Z,2.08
2023-05-07T19:21:16.759Z,1.27
2023-05-07T19:24:19.164Z,3.63
2023-05-07T19:27:29.795Z,2.58
2023-05-07T19:30:32.620Z,1.80
2023-05-07T19:33:34.702Z,2.03
2023-05-07T19:36:38.306Z,2.47
2023-05-07T19:39:40.766Z,2.20
2023-05-07T19:42:43.062Z,3.47
2023-05-07T19:45:45.203Z,2.38
2023-05-07T19:48:47.368Z,1.50
2023-05-07T19:51:49.548Z,1.80
2023-05-07T19:54:51.673Z,2.78
2023-05-07T19:57:53.864Z,1.88
2023-05-07T20:00:55.865Z,2.05
2023-05-07T20:03:58.402Z,2.92
2023-05-07T20:07:00.890Z,1.58
2023-05-07T20:10:03.367Z,2.53
2023-05-07T20:13:05.777Z,2.67
2023-05-07T20:16:08.300Z,1.88
2023-05-07T20:19:10.654Z,2.63
2023-05-07T20:22:13.090Z,1.85
2023-05-07T20:25:24.288Z,1.65
2023-05-07T20:28:26.456Z,1.20
2023-05-07T20:31:28.568Z,1.73
2023-05-07T20:34:30.590Z,1.83
2023-05-07T20:37:35.220Z,2.40
2023-05-07T20:40:38.037Z,2.00
2023-05-07T20:43:40.463Z,1.48
2023-05-07T20:46:43.953Z,1.10
2023-05-07T20:49:53.298Z,1.77
2023-05-07T20:52:55.549Z,1.13
2023-05-07T20:56:00.272Z,2.92
2023-05-07T20:59:02.551Z,3.17
2023-05-07T21:02:04.733Z,1.35
2023-05-07T21:05:07.268Z,1.20
2023-05-07T21:08:09.886Z,1.52
2023-05-07T21:11:13.119Z,1.70
2023-05-07T21:14:15.649Z,1.35
2023-05-07T21:17:17.757Z,1.88
2023-05-07T21:20:19.986Z,1.13
2023-05-07T21:23:22.057Z,2.78
2023-05-07T21:26:24.341Z,2.03
2023-05-07T21:29:27.083Z,1.52
2023-05-07T21:32:30.043Z,1.80
2023-05-07T21:35:32.208Z,1.48
2023-05-07T21:38:34.336Z,10.10
2023-05-07T21:41:36.755Z,2.00
2023-05-07T21:44:48.251Z,1.45
2023-05-07T21:47:50.606Z,1.92
2023-05-07T21:51:03.366Z,1.75
2023-05-07T21:54:07.129Z,1.23
2023-05-07T21:57:10.125Z,1.65
2023-05-07T22:00:13.284Z,1.83
2023-05-07T22:03:15.998Z,1.63
2023-05-07T22:06:21.904Z,2.35
2023-05-07T22:09:24.865Z,1.67
2023-05-07T22:12:26.935Z,1.65
2023-05-07T22:15:29.065Z,1.00
2023-05-07T22:18:33.132Z,1.55
2023-05-07T22:21:36.187Z,1.30
2023-05-07T22:24:38.852Z,2.13
2023-05-07T22:27:41.387Z,5.15
2023-05-07T22:30:43.836Z,1.75
2023-05-07T22:33:46.183Z,1.50
2023-05-07T22:36:48.346Z,1.15
2023-05-07T22:39:50.609Z,2.08
2023-05-07T22:42:52.692Z,1.77
2023-05-07T22:46:01.599Z,1.30
2023-05-07T22:49:03.992Z,2.65
2023-05-07T22:52:06.315Z,1.80
2023-05-07T22:55:08.684Z,1.63
2023-05-07T22:58:10.854Z,1.35
2023-05-07T23:01:15.761Z,1.85
2023-05-07T23:04:18.216Z,1.70
2023-05-07T23:07:20.212Z,3.17
2023-05-07T23:10:23.272Z,2.17
2023-05-07T23:13:25.556Z,2.28
2023-05-07T23:16:28.944Z,2.45
2023-05-07T23:19:31.581Z,1.58
2023-05-07T23:22:33.814Z,3.50
2023-05-07T23:25:36.429Z,1.48
2023-05-07T23:28:38.437Z,5.07
2023-05-07T23:31:40.599Z,2.47
2023-05-07T23:34:42.884Z,2.15
2023-05-07T23:37:47.991Z,2.50
2023-05-07T23:40:50.232Z,1.52
2023-05-07T23:43:52.435Z,1.08
2023-05-07T23:46:54.797Z,2.63
2023-05-07T23:49:56.987Z,2.78
2023-05-07T23:52:59.114Z,2.63
2023-05-07T23:56:01.414Z,1.83
2023-05-07T23:59:04.589Z,2.28
